sensor_id;sensor_type;location;lat;lon;timestamp;temperature;humidity
34646;DHT22;20857;47.808;12.482;2023-07-31T00:00:38;17.20;99.90
34646;DHT22;20857;47.808;12.482;2023-07-31T00:03:04;17.20;99.90
34646;DHT22;20857;47.808;12.482;2023-07-31T00:05:29;17.10;99.90
34646;DHT22;20857;47.808;12.482;2023-07-31T00:07:55;17.10;99.90
34646;DHT22;20857;47.808;12.482;2023-07-31T00:10:20;17.00;99.90
34646;DHT22;20857;47.808;12.482;2023-07-31T00:12:46;17.00;99.90
34646;DHT22;20857;47.808;12.482;2023-07-31T00:15:13;17.00;99.90
34646;DHT22;20857;47.808;12.482;2023-07-31T00:17:39;17.00;99.90
34646;DHT22;20857;47.808;12.482;2023-07-31T00:20:05;17.00;99.90
34646;DHT22;20857;47.808;12.482;2023-07-31T00:22:30;17.00;99.90
34646;DHT22;20857;47.808;12.482;2023-07-31T00:24:56;16.90;99.90
34646;DHT22;20857;47.808;12.482;2023-07-31T00:27:22;16.90;99.90
34646;DHT22;20857;47.808;12.482;2023-07-31T00:29:48;16.90;99.90
34646;DHT22;20857;47.808;12.482;2023-07-31T00:32:13;16.90;99.90
34646;DHT22;20857;47.808;12.482;2023-07-31T00:34:39;16.80;99.90
34646;DHT22;20857;47.808;12.482;2023-07-31T00:37:04;16.80;99.90
34646;DHT22;20857;47.808;12.482;2023-07-31T00:39:30;16.70;99.90
34646;DHT22;20857;47.808;12.482;2023-07-31T00:41:56;16.70;99.90
34646;DHT22;20857;47.808;12.482;2023-07-31T00:44:22;16.60;99.90
34646;DHT22;20857;47.808;12.482;2023-07-31T00:46:48;16.50;99.90
34646;DHT22;20857;47.808;12.482;2023-07-31T00:49:14;16.40;99.90
34646;DHT22;20857;47.808;12.482;2023-07-31T00:51:39;16.40;99.90
34646;DHT22;20857;47.808;12.482;2023-07-31T00:54:06;16.30;99.90
34646;DHT22;20857;47.808;12.482;2023-07-31T00:56:32;16.30;99.90
34646;DHT22;20857;47.808;12.482;2023-07-31T00:58:58;16.30;99.90
34646;DHT22;20857;47.808;12.482;2023-07-31T01:01:23;16.30;99.90
34646;DHT22;20857;47.808;12.482;2023-07-31T01:03:50;16.30;99.90
34646;DHT22;20857;47.808;12.482;2023-07-31T01:09:04;16.20;99.90
34646;DHT22;20857;47.808;12.482;2023-07-31T01:11:33;16.20;99.90
34646;DHT22;20857;47.808;12.482;2023-07-31T01:13:58;16.10;99.90
34646;DHT22;20857;47.808;12.482;2023-07-31T01:16:27;16.00;99.90
34646;DHT22;20857;47.808;12.482;2023-07-31T01:18:53;15.90;99.90
34646;DHT22;20857;47.808;12.482;2023-07-31T01:21:56;15.90;99.90
34646;DHT22;20857;47.808;12.482;2023-07-31T01:26:56;15.70;99.90
34646;DHT22;20857;47.808;12.482;2023-07-31T01:29:34;15.60;99.90
34646;DHT22;20857;47.808;12.482;2023-07-31T01:32:05;15.60;99.90
34646;DHT22;20857;47.808;12.482;2023-07-31T01:34:32;15.50;99.90
34646;DHT22;20857;47.808;12.482;2023-07-31T01:36:58;15.40;99.90
34646;DHT22;20857;47.808;12.482;2023-07-31T01:39:24;15.30;99.90
34646;DHT22;20857;47.808;12.482;2023-07-31T01:41:50;15.30;99.90
34646;DHT22;20857;47.808;12.482;2023-07-31T01:44:15;15.30;99.90
34646;DHT22;20857;47.808;12.482;2023-07-31T01:46:41;15.30;99.90
34646;DHT22;20857;47.808;12.482;2023-07-31T01:49:06;15.30;99.90
34646;DHT22;20857;47.808;12.482;2023-07-31T01:51:32;15.40;99.90
34646;DHT22;20857;47.808;12.482;2023-07-31T01:54:01;15.40;99.90
34646;DHT22;20857;47.808;12.482;2023-07-31T01:56:27;15.50;99.90
34646;DHT22;20857;47.808;12.482;2023-07-31T01:58:52;15.50;99.90
34646;DHT22;20857;47.808;12.482;2023-07-31T02:01:18;15.50;99.90
34646;DHT22;20857;47.808;12.482;2023-07-31T02:03:44;15.50;99.90
34646;DHT22;20857;47.808;12.482;2023-07-31T02:06:09;15.40;99.90
34646;DHT22;20857;47.808;12.482;2023-07-31T02:08:35;15.40;99.90
34646;DHT22;20857;47.808;12.482;2023-07-31T02:11:00;15.30;99.90
34646;DHT22;20857;47.808;12.482;2023-07-31T02:13:26;15.30;99.90
34646;DHT22;20857;47.808;12.482;2023-07-31T02:15:51;15.30;99.90
34646;DHT22;20857;47.808;12.482;2023-07-31T02:18:17;15.30;99.90
34646;DHT22;20857;47.808;12.482;2023-07-31T02:20:43;15.30;99.90
34646;DHT22;20857;47.808;12.482;2023-07-31T02:23:08;15.40;99.90
34646;DHT22;20857;47.808;12.482;2023-07-31T02:25:34;15.40;99.90
34646;DHT22;20857;47.808;12.482;2023-07-31T02:28:00;15.50;99.90
34646;DHT22;20857;47.808;12.482;2023-07-31T02:30:25;15.50;99.90
34646;DHT22;20857;47.808;12.482;2023-07-31T02:32:51;15.60;99.90
34646;DHT22;20857;47.808;12.482;2023-07-31T02:35:16;15.60;99.90
34646;DHT22;20857;47.808;12.482;2023-07-31T02:37:43;15.70;99.90
34646;DHT22;20857;47.808;12.482;2023-07-31T02:40:09;15.70;99.90
34646;DHT22;20857;47.808;12.482;2023-07-31T02:42:35;15.70;99.90
34646;DHT22;20857;47.808;12.482;2023-07-31T02:45:00;15.70;99.90
34646;DHT22;20857;47.808;12.482;2023-07-31T02:47:26;15.80;99.90
34646;DHT22;20857;47.808;12.482;2023-07-31T02:49:52;15.80;99.90
34646;DHT22;20857;47.808;12.482;2023-07-31T02:52:17;15.80;99.90
34646;DHT22;20857;47.808;12.482;2023-07-31T02:54:43;15.80;99.90
34646;DHT22;20857;47.808;12.482;2023-07-31T02:57:08;15.80;99.90
34646;DHT22;20857;47.808;12.482;2023-07-31T02:59:34;15.80;99.90
34646;DHT22;20857;47.808;12.482;2023-07-31T03:01:59;15.70;99.90
34646;DHT22;20857;47.808;12.482;2023-07-31T03:04:25;15.70;99.90
34646;DHT22;20857;47.808;12.482;2023-07-31T03:06:50;15.70;99.90
34646;DHT22;20857;47.808;12.482;2023-07-31T03:09:16;15.70;99.90
34646;DHT22;20857;47.808;12.482;2023-07-31T03:11:42;15.60;99.90
34646;DHT22;20857;47.808;12.482;2023-07-31T03:14:07;15.60;99.90
34646;DHT22;20857;47.808;12.482;2023-07-31T03:16:33;15.50;99.90
34646;DHT22;20857;47.808;12.482;2023-07-31T03:18:58;15.50;99.90
34646;DHT22;20857;47.808;12.482;2023-07-31T03:21:24;15.50;99.90
34646;DHT22;20857;47.808;12.482;2023-07-31T03:23:49;15.50;99.90
34646;DHT22;20857;47.808;12.482;2023-07-31T03:26:15;15.50;99.90
34646;DHT22;20857;47.808;12.482;2023-07-31T03:28:41;15.50;99.90
34646;DHT22;20857;47.808;12.482;2023-07-31T03:31:06;15.50;99.90
34646;DHT22;20857;47.808;12.482;2023-07-31T03:33:33;15.50;99.90
34646;DHT22;20857;47.808;12.482;2023-07-31T03:35:59;15.50;99.90
34646;DHT22;20857;47.808;12.482;2023-07-31T03:38:24;15.50;99.90
34646;DHT22;20857;47.808;12.482;2023-07-31T03:40:50;15.50;99.90
34646;DHT22;20857;47.808;12.482;2023-07-31T03:43:16;15.40;99.90
34646;DHT22;20857;47.808;12.482;2023-07-31T03:45:41;15.30;99.90
34646;DHT22;20857;47.808;12.482;2023-07-31T03:48:07;15.30;99.90
34646;DHT22;20857;47.808;12.482;2023-07-31T03:54:16;15.30;99.90
34646;DHT22;20857;47.808;12.482;2023-07-31T03:56:42;15.20;99.90
34646;DHT22;20857;47.808;12.482;2023-07-31T03:59:07;15.10;99.90
34646;DHT22;20857;47.808;12.482;2023-07-31T04:01:33;15.10;99.90
34646;DHT22;20857;47.808;12.482;2023-07-31T04:03:58;15.10;99.90
34646;DHT22;20857;47.808;12.482;2023-07-31T04:06:24;15.10;99.90
34646;DHT22;20857;47.808;12.482;2023-07-31T04:08:49;15.10;99.90
34646;DHT22;20857;47.808;12.482;2023-07-31T04:11:15;15.10;99.90
34646;DHT22;20857;47.808;12.482;2023-07-31T04:13:41;15.20;99.90
34646;DHT22;20857;47.808;12.482;2023-07-31T04:16:06;15.20;99.90
34646;DHT22;20857;47.808;12.482;2023-07-31T04:18:32;15.30;99.90
34646;DHT22;20857;47.808;12.482;2023-07-31T04:20:58;15.30;99.90
34646;DHT22;20857;47.808;12.482;2023-07-31T04:23:27;15.30;99.90
34646;DHT22;20857;47.808;12.482;2023-07-31T04:29:15;15.30;99.90
34646;DHT22;20857;47.808;12.482;2023-07-31T04:31:41;15.30;99.90
34646;DHT22;20857;47.808;12.482;2023-07-31T04:34:06;15.30;99.90
34646;DHT22;20857;47.808;12.482;2023-07-31T04:36:34;15.30;99.90
34646;DHT22;20857;47.808;12.482;2023-07-31T04:39:00;15.30;99.90
34646;DHT22;20857;47.808;12.482;2023-07-31T04:41:26;15.30;99.90
34646;DHT22;20857;47.808;12.482;2023-07-31T04:43:51;15.40;99.90
34646;DHT22;20857;47.808;12.482;2023-07-31T04:46:17;15.60;99.90
34646;DHT22;20857;47.808;12.482;2023-07-31T04:48:43;15.80;99.90
34646;DHT22;20857;47.808;12.482;2023-07-31T04:51:08;15.80;99.90
34646;DHT22;20857;47.808;12.482;2023-07-31T04:53:37;15.90;99.90
34646;DHT22;20857;47.808;12.482;2023-07-31T04:56:03;16.10;99.90
34646;DHT22;20857;47.808;12.482;2023-07-31T04:58:28;16.10;99.90
34646;DHT22;20857;47.808;12.482;2023-07-31T05:00:54;16.20;99.90
34646;DHT22;20857;47.808;12.482;2023-07-31T05:03:19;16.20;99.90
34646;DHT22;20857;47.808;12.482;2023-07-31T05:05:45;16.30;99.90
34646;DHT22;20857;47.808;12.482;2023-07-31T05:08:10;16.20;99.90
34646;DHT22;20857;47.808;12.482;2023-07-31T05:10:36;16.30;99.90
34646;DHT22;20857;47.808;12.482;2023-07-31T05:13:02;16.20;99.90
34646;DHT22;20857;47.808;12.482;2023-07-31T05:15:28;16.20;99.90
34646;DHT22;20857;47.808;12.482;2023-07-31T05:17:54;16.20;99.90
34646;DHT22;20857;47.808;12.482;2023-07-31T05:20:20;16.40;99.90
34646;DHT22;20857;47.808;12.482;2023-07-31T05:22:45;16.60;99.90
34646;DHT22;20857;47.808;12.482;2023-07-31T05:25:11;16.80;99.90
34646;DHT22;20857;47.808;12.482;2023-07-31T05:27:36;16.90;99.90
34646;DHT22;20857;47.808;12.482;2023-07-31T05:30:02;17.10;99.90
34646;DHT22;20857;47.808;12.482;2023-07-31T05:32:28;17.20;99.90
34646;DHT22;20857;47.808;12.482;2023-07-31T05:34:53;17.20;99.90
34646;DHT22;20857;47.808;12.482;2023-07-31T05:37:20;17.40;99.90
34646;DHT22;20857;47.808;12.482;2023-07-31T05:39:45;17.50;99.90
34646;DHT22;20857;47.808;12.482;2023-07-31T05:42:11;17.60;99.90
34646;DHT22;20857;47.808;12.482;2023-07-31T05:44:37;17.80;99.90
34646;DHT22;20857;47.808;12.482;2023-07-31T05:47:02;18.00;99.90
34646;DHT22;20857;47.808;12.482;2023-07-31T05:49:28;18.20;99.90
34646;DHT22;20857;47.808;12.482;2023-07-31T05:51:53;18.50;99.90
34646;DHT22;20857;47.808;12.482;2023-07-31T05:54:19;18.70;99.90
34646;DHT22;20857;47.808;12.482;2023-07-31T05:56:44;18.90;99.90
34646;DHT22;20857;47.808;12.482;2023-07-31T05:59:12;19.00;99.90
34646;DHT22;20857;47.808;12.482;2023-07-31T06:01:37;19.20;99.90
34646;DHT22;20857;47.808;12.482;2023-07-31T06:04:03;19.10;99.90
34646;DHT22;20857;47.808;12.482;2023-07-31T06:06:29;19.10;99.90
34646;DHT22;20857;47.808;12.482;2023-07-31T06:08:55;19.10;99.90
34646;DHT22;20857;47.808;12.482;2023-07-31T06:11:21;18.90;99.90
34646;DHT22;20857;47.808;12.482;2023-07-31T06:13:47;18.90;99.90
34646;DHT22;20857;47.808;12.482;2023-07-31T06:16:14;18.90;99.90
34646;DHT22;20857;47.808;12.482;2023-07-31T06:18:41;18.80;99.90
34646;DHT22;20857;47.808;12.482;2023-07-31T06:21:06;18.80;99.90
34646;DHT22;20857;47.808;12.482;2023-07-31T06:23:32;18.90;99.90
34646;DHT22;20857;47.808;12.482;2023-07-31T06:25:57;18.90;99.90
34646;DHT22;20857;47.808;12.482;2023-07-31T06:28:30;19.00;99.90
34646;DHT22;20857;47.808;12.482;2023-07-31T06:30:57;19.00;99.90
34646;DHT22;20857;47.808;12.482;2023-07-31T06:33:22;19.10;99.90
34646;DHT22;20857;47.808;12.482;2023-07-31T06:35:48;19.20;99.90
34646;DHT22;20857;47.808;12.482;2023-07-31T06:38:13;19.20;99.90
34646;DHT22;20857;47.808;12.482;2023-07-31T06:40:39;19.30;99.90
34646;DHT22;20857;47.808;12.482;2023-07-31T06:43:05;19.30;99.90
34646;DHT22;20857;47.808;12.482;2023-07-31T06:45:34;19.40;99.90
34646;DHT22;20857;47.808;12.482;2023-07-31T06:48:01;19.60;99.90
34646;DHT22;20857;47.808;12.482;2023-07-31T06:50:30;19.80;99.90
34646;DHT22;20857;47.808;12.482;2023-07-31T06:52:56;20.00;99.90
34646;DHT22;20857;47.808;12.482;2023-07-31T06:55:22;20.20;99.90
34646;DHT22;20857;47.808;12.482;2023-07-31T06:57:50;20.40;99.90
34646;DHT22;20857;47.808;12.482;2023-07-31T07:00:16;20.60;99.90
34646;DHT22;20857;47.808;12.482;2023-07-31T07:02:42;20.70;99.90
34646;DHT22;20857;47.808;12.482;2023-07-31T07:05:08;20.90;99.90
34646;DHT22;20857;47.808;12.482;2023-07-31T07:07:35;21.00;99.90
34646;DHT22;20857;47.808;12.482;2023-07-31T07:10:01;21.30;99.90
34646;DHT22;20857;47.808;12.482;2023-07-31T07:12:29;21.40;99.90
34646;DHT22;20857;47.808;12.482;2023-07-31T07:14:55;21.50;99.90
34646;DHT22;20857;47.808;12.482;2023-07-31T07:17:20;21.50;99.90
34646;DHT22;20857;47.808;12.482;2023-07-31T07:19:47;21.50;99.90
34646;DHT22;20857;47.808;12.482;2023-07-31T07:22:13;21.60;99.90
34646;DHT22;20857;47.808;12.482;2023-07-31T07:24:39;21.90;99.90
34646;DHT22;20857;47.808;12.482;2023-07-31T07:27:05;21.80;99.90
34646;DHT22;20857;47.808;12.482;2023-07-31T07:29:30;21.50;99.90
34646;DHT22;20857;47.808;12.482;2023-07-31T07:31:56;21.40;99.90
34646;DHT22;20857;47.808;12.482;2023-07-31T07:34:28;21.30;99.90
34646;DHT22;20857;47.808;12.482;2023-07-31T07:36:54;21.30;99.90
34646;DHT22;20857;47.808;12.482;2023-07-31T07:39:20;21.40;99.90
34646;DHT22;20857;47.808;12.482;2023-07-31T07:41:46;21.60;99.90
34646;DHT22;20857;47.808;12.482;2023-07-31T07:44:12;21.80;99.90
34646;DHT22;20857;47.808;12.482;2023-07-31T07:46:38;21.70;99.90
34646;DHT22;20857;47.808;12.482;2023-07-31T07:49:04;21.60;99.90
34646;DHT22;20857;47.808;12.482;2023-07-31T07:51:29;21.60;99.90
34646;DHT22;20857;47.808;12.482;2023-07-31T07:53:59;21.20;99.90
34646;DHT22;20857;47.808;12.482;2023-07-31T07:56:26;20.90;99.90
34646;DHT22;20857;47.808;12.482;2023-07-31T07:58:52;20.90;99.90
34646;DHT22;20857;47.808;12.482;2023-07-31T08:01:18;21.20;99.90
34646;DHT22;20857;47.808;12.482;2023-07-31T08:03:44;21.30;99.90
34646;DHT22;20857;47.808;12.482;2023-07-31T08:06:10;21.20;99.90
34646;DHT22;20857;47.808;12.482;2023-07-31T08:08:36;21.40;99.90
34646;DHT22;20857;47.808;12.482;2023-07-31T08:11:02;21.60;99.90
34646;DHT22;20857;47.808;12.482;2023-07-31T08:13:27;21.30;99.90
34646;DHT22;20857;47.808;12.482;2023-07-31T08:15:53;20.80;99.90
34646;DHT22;20857;47.808;12.482;2023-07-31T08:18:19;21.00;99.90
34646;DHT22;20857;47.808;12.482;2023-07-31T08:20:44;21.20;99.90
34646;DHT22;20857;47.808;12.482;2023-07-31T08:23:10;21.30;99.90
34646;DHT22;20857;47.808;12.482;2023-07-31T08:25:36;21.00;99.90
34646;DHT22;20857;47.808;12.482;2023-07-31T08:28:03;20.50;99.90
34646;DHT22;20857;47.808;12.482;2023-07-31T08:30:29;20.30;99.90
34646;DHT22;20857;47.808;12.482;2023-07-31T08:32:55;20.20;99.90
34646;DHT22;20857;47.808;12.482;2023-07-31T08:35:21;20.40;99.90
34646;DHT22;20857;47.808;12.482;2023-07-31T08:37:47;20.60;99.90
34646;DHT22;20857;47.808;12.482;2023-07-31T08:40:12;20.60;99.90
34646;DHT22;20857;47.808;12.482;2023-07-31T08:42:46;20.60;99.90
34646;DHT22;20857;47.808;12.482;2023-07-31T08:45:18;20.60;99.90
34646;DHT22;20857;47.808;12.482;2023-07-31T08:47:49;20.80;99.90
34646;DHT22;20857;47.808;12.482;2023-07-31T08:50:17;20.90;99.90
34646;DHT22;20857;47.808;12.482;2023-07-31T08:52:43;20.90;99.90
34646;DHT22;20857;47.808;12.482;2023-07-31T08:55:09;20.90;99.90
34646;DHT22;20857;47.808;12.482;2023-07-31T08:57:36;20.90;99.90
34646;DHT22;20857;47.808;12.482;2023-07-31T09:00:03;21.00;99.90
34646;DHT22;20857;47.808;12.482;2023-07-31T09:02:41;20.90;99.90
34646;DHT22;20857;47.808;12.482;2023-07-31T09:05:10;21.00;99.90
34646;DHT22;20857;47.808;12.482;2023-07-31T09:07:37;21.00;99.90
34646;DHT22;20857;47.808;12.482;2023-07-31T09:10:04;20.90;99.90
34646;DHT22;20857;47.808;12.482;2023-07-31T09:12:30;20.90;99.90
34646;DHT22;20857;47.808;12.482;2023-07-31T09:14:59;20.80;99.90
34646;DHT22;20857;47.808;12.482;2023-07-31T09:17:33;20.60;99.90
34646;DHT22;20857;47.808;12.482;2023-07-31T09:20:19;20.60;99.90
34646;DHT22;20857;47.808;12.482;2023-07-31T09:22:46;20.80;99.90
34646;DHT22;20857;47.808;12.482;2023-07-31T09:25:26;21.00;99.90
34646;DHT22;20857;47.808;12.482;2023-07-31T09:28:04;21.20;99.90
34646;DHT22;20857;47.808;12.482;2023-07-31T09:30:30;21.40;99.90
34646;DHT22;20857;47.808;12.482;2023-07-31T09:33:04;21.40;99.90
34646;DHT22;20857;47.808;12.482;2023-07-31T09:35:33;21.50;99.90
34646;DHT22;20857;47.808;12.482;2023-07-31T09:38:07;21.60;99.90
34646;DHT22;20857;47.808;12.482;2023-07-31T09:40:36;22.30;99.90
34646;DHT22;20857;47.808;12.482;2023-07-31T09:43:12;22.50;99.90
34646;DHT22;20857;47.808;12.482;2023-07-31T09:45:40;22.50;99.90
34646;DHT22;20857;47.808;12.482;2023-07-31T09:48:10;22.50;99.90
34646;DHT22;20857;47.808;12.482;2023-07-31T09:50:40;22.50;99.90
34646;DHT22;20857;47.808;12.482;2023-07-31T09:53:07;22.20;99.90
34646;DHT22;20857;47.808;12.482;2023-07-31T09:55:34;22.00;99.90
34646;DHT22;20857;47.808;12.482;2023-07-31T09:58:04;22.30;99.90
34646;DHT22;20857;47.808;12.482;2023-07-31T10:00:30;22.50;99.90
34646;DHT22;20857;47.808;12.482;2023-07-31T10:02:59;22.50;99.90
34646;DHT22;20857;47.808;12.482;2023-07-31T10:05:36;22.90;99.90
34646;DHT22;20857;47.808;12.482;2023-07-31T10:08:02;23.00;99.90
34646;DHT22;20857;47.808;12.482;2023-07-31T10:10:28;23.20;99.90
34646;DHT22;20857;47.808;12.482;2023-07-31T10:12:56;23.30;99.90
34646;DHT22;20857;47.808;12.482;2023-07-31T10:15:22;23.30;99.90
34646;DHT22;20857;47.808;12.482;2023-07-31T10:17:49;23.30;99.90
34646;DHT22;20857;47.808;12.482;2023-07-31T10:20:16;23.30;99.90
34646;DHT22;20857;47.808;12.482;2023-07-31T10:22:43;23.20;99.90
34646;DHT22;20857;47.808;12.482;2023-07-31T10:25:09;23.60;99.90
34646;DHT22;20857;47.808;12.482;2023-07-31T10:27:41;23.70;99.90
34646;DHT22;20857;47.808;12.482;2023-07-31T10:43:24;23.00;99.90
34646;DHT22;20857;47.808;12.482;2023-07-31T10:45:51;23.10;99.90
34646;DHT22;20857;47.808;12.482;2023-07-31T10:48:17;23.40;99.90
34646;DHT22;20857;47.808;12.482;2023-07-31T10:50:51;23.30;99.90
34646;DHT22;20857;47.808;12.482;2023-07-31T10:53:31;23.10;99.90
34646;DHT22;20857;47.808;12.482;2023-07-31T10:56:07;23.50;99.90
34646;DHT22;20857;47.808;12.482;2023-07-31T10:58:33;23.30;99.90
34646;DHT22;20857;47.808;12.482;2023-07-31T11:01:04;22.80;99.90
34646;DHT22;20857;47.808;12.482;2023-07-31T11:03:50;22.70;99.90
34646;DHT22;20857;47.808;12.482;2023-07-31T11:06:19;22.80;99.90
34646;DHT22;20857;47.808;12.482;2023-07-31T11:08:46;23.00;99.90
34646;DHT22;20857;47.808;12.482;2023-07-31T11:11:17;23.10;99.90
34646;DHT22;20857;47.808;12.482;2023-07-31T11:16:13;23.50;99.90
34646;DHT22;20857;47.808;12.482;2023-07-31T11:18:40;23.80;99.90
34646;DHT22;20857;47.808;12.482;2023-07-31T11:21:07;24.20;99.90
34646;DHT22;20857;47.808;12.482;2023-07-31T11:23:33;24.30;99.90
34646;DHT22;20857;47.808;12.482;2023-07-31T11:25:59;24.10;99.90
34646;DHT22;20857;47.808;12.482;2023-07-31T11:28:25;23.80;99.90
34646;DHT22;20857;47.808;12.482;2023-07-31T11:30:51;23.60;99.90
34646;DHT22;20857;47.808;12.482;2023-07-31T11:33:17;23.30;99.90
34646;DHT22;20857;47.808;12.482;2023-07-31T11:35:47;23.40;99.90
34646;DHT22;20857;47.808;12.482;2023-07-31T11:38:28;23.70;99.90
34646;DHT22;20857;47.808;12.482;2023-07-31T11:40:56;23.80;99.90
34646;DHT22;20857;47.808;12.482;2023-07-31T11:43:22;23.60;99.90
34646;DHT22;20857;47.808;12.482;2023-07-31T11:45:53;23.80;99.90
34646;DHT22;20857;47.808;12.482;2023-07-31T11:48:24;23.80;99.90
34646;DHT22;20857;47.808;12.482;2023-07-31T11:50:52;23.90;99.90
34646;DHT22;20857;47.808;12.482;2023-07-31T11:53:33;23.90;99.90
34646;DHT22;20857;47.808;12.482;2023-07-31T11:56:01;24.20;99.90
34646;DHT22;20857;47.808;12.482;2023-07-31T11:58:28;24.40;99.90
34646;DHT22;20857;47.808;12.482;2023-07-31T12:03:21;23.80;99.90
34646;DHT22;20857;47.808;12.482;2023-07-31T12:05:49;23.80;99.90
34646;DHT22;20857;47.808;12.482;2023-07-31T12:08:15;23.80;99.90
34646;DHT22;20857;47.808;12.482;2023-07-31T12:10:41;24.00;99.90
34646;DHT22;20857;47.808;12.482;2023-07-31T12:13:12;24.20;99.90
34646;DHT22;20857;47.808;12.482;2023-07-31T12:15:45;24.40;99.90
34646;DHT22;20857;47.808;12.482;2023-07-31T12:18:15;24.80;99.30
34646;DHT22;20857;47.808;12.482;2023-07-31T12:20:49;25.00;98.90
34646;DHT22;20857;47.808;12.482;2023-07-31T12:23:20;25.00;98.70
34646;DHT22;20857;47.808;12.482;2023-07-31T12:26:17;24.90;98.20
34646;DHT22;20857;47.808;12.482;2023-07-31T12:28:49;24.30;99.30
34646;DHT22;20857;47.808;12.482;2023-07-31T12:31:17;24.20;99.90
34646;DHT22;20857;47.808;12.482;2023-07-31T12:33:43;24.40;99.90
34646;DHT22;20857;47.808;12.482;2023-07-31T12:36:14;25.00;99.50
34646;DHT22;20857;47.808;12.482;2023-07-31T12:38:41;25.10;99.60
34646;DHT22;20857;47.808;12.482;2023-07-31T12:43:36;26.50;96.70
34646;DHT22;20857;47.808;12.482;2023-07-31T12:46:03;27.40;98.50
34646;DHT22;20857;47.808;12.482;2023-07-31T12:48:28;27.20;96.40
34646;DHT22;20857;47.808;12.482;2023-07-31T12:50:54;27.10;95.60
34646;DHT22;20857;47.808;12.482;2023-07-31T12:53:20;27.00;95.70
34646;DHT22;20857;47.808;12.482;2023-07-31T12:55:46;26.30;96.80
34646;DHT22;20857;47.808;12.482;2023-07-31T12:58:11;26.50;98.20
34646;DHT22;20857;47.808;12.482;2023-07-31T13:00:37;27.50;96.00
34646;DHT22;20857;47.808;12.482;2023-07-31T13:03:03;28.00;95.30
34646;DHT22;20857;47.808;12.482;2023-07-31T13:05:29;28.10;95.80
34646;DHT22;20857;47.808;12.482;2023-07-31T13:07:55;27.60;95.80
34646;DHT22;20857;47.808;12.482;2023-07-31T13:10:21;27.40;97.30
34646;DHT22;20857;47.808;12.482;2023-07-31T13:12:47;27.30;97.00
34646;DHT22;20857;47.808;12.482;2023-07-31T13:15:12;27.00;96.50
34646;DHT22;20857;47.808;12.482;2023-07-31T13:17:38;26.80;96.80
34646;DHT22;20857;47.808;12.482;2023-07-31T13:20:04;27.00;97.60
34646;DHT22;20857;47.808;12.482;2023-07-31T13:22:30;27.50;96.40
34646;DHT22;20857;47.808;12.482;2023-07-31T13:24:56;28.60;95.60
34646;DHT22;20857;47.808;12.482;2023-07-31T13:27:21;29.70;94.70
34646;DHT22;20857;47.808;12.482;2023-07-31T13:29:51;30.50;94.20
34646;DHT22;20857;47.808;12.482;2023-07-31T13:32:18;30.40;94.60
34646;DHT22;20857;47.808;12.482;2023-07-31T13:34:45;30.00;93.80
34646;DHT22;20857;47.808;12.482;2023-07-31T13:40:33;27.70;94.60
34646;DHT22;20857;47.808;12.482;2023-07-31T13:42:59;28.80;93.50
34646;DHT22;20857;47.808;12.482;2023-07-31T13:45:25;28.30;94.50
34646;DHT22;20857;47.808;12.482;2023-07-31T13:47:50;28.00;93.90
34646;DHT22;20857;47.808;12.482;2023-07-31T13:50:16;28.00;93.50
34646;DHT22;20857;47.808;12.482;2023-07-31T13:52:44;27.40;94.00
34646;DHT22;20857;47.808;12.482;2023-07-31T13:55:10;26.90;94.20
34646;DHT22;20857;47.808;12.482;2023-07-31T13:57:35;26.60;95.80
34646;DHT22;20857;47.808;12.482;2023-07-31T14:00:01;26.70;96.00
34646;DHT22;20857;47.808;12.482;2023-07-31T14:02:27;27.20;94.20
34646;DHT22;20857;47.808;12.482;2023-07-31T14:04:53;27.10;94.10
34646;DHT22;20857;47.808;12.482;2023-07-31T14:10:40;27.70;95.80
34646;DHT22;20857;47.808;12.482;2023-07-31T14:13:06;29.20;93.30
34646;DHT22;20857;47.808;12.482;2023-07-31T14:15:32;28.50;92.90
34646;DHT22;20857;47.808;12.482;2023-07-31T14:17:57;27.70;94.10
34646;DHT22;20857;47.808;12.482;2023-07-31T14:20:23;27.50;94.20
34646;DHT22;20857;47.808;12.482;2023-07-31T14:22:48;27.70;94.00
34646;DHT22;20857;47.808;12.482;2023-07-31T14:25:15;28.00;94.80
34646;DHT22;20857;47.808;12.482;2023-07-31T14:27:41;27.90;94.50
34646;DHT22;20857;47.808;12.482;2023-07-31T14:30:07;29.20;92.90
34646;DHT22;20857;47.808;12.482;2023-07-31T14:32:33;30.90;93.70
34646;DHT22;20857;47.808;12.482;2023-07-31T14:34:58;32.70;90.50
34646;DHT22;20857;47.808;12.482;2023-07-31T14:37:26;32.70;90.40
34646;DHT22;20857;47.808;12.482;2023-07-31T14:39:52;33.00;89.90
34646;DHT22;20857;47.808;12.482;2023-07-31T14:42:18;32.40;88.50
34646;DHT22;20857;47.808;12.482;2023-07-31T14:44:44;33.10;88.50
34646;DHT22;20857;47.808;12.482;2023-07-31T14:47:10;32.30;90.80
34646;DHT22;20857;47.808;12.482;2023-07-31T14:49:35;32.30;87.70
34646;DHT22;20857;47.808;12.482;2023-07-31T14:52:01;31.10;88.30
34646;DHT22;20857;47.808;12.482;2023-07-31T14:54:26;31.10;90.10
34646;DHT22;20857;47.808;12.482;2023-07-31T14:56:52;31.40;89.70
34646;DHT22;20857;47.808;12.482;2023-07-31T14:59:17;31.40;90.00
34646;DHT22;20857;47.808;12.482;2023-07-31T15:01:43;31.40;88.60
34646;DHT22;20857;47.808;12.482;2023-07-31T15:04:09;31.60;90.80
34646;DHT22;20857;47.808;12.482;2023-07-31T15:06:34;31.90;90.00
34646;DHT22;20857;47.808;12.482;2023-07-31T15:09:00;31.50;90.20
34646;DHT22;20857;47.808;12.482;2023-07-31T15:11:25;32.00;90.80
34646;DHT22;20857;47.808;12.482;2023-07-31T15:13:51;32.90;90.20
34646;DHT22;20857;47.808;12.482;2023-07-31T15:16:16;34.10;87.60
34646;DHT22;20857;47.808;12.482;2023-07-31T15:18:42;33.10;90.10
34646;DHT22;20857;47.808;12.482;2023-07-31T15:23:34;33.40;84.20
34646;DHT22;20857;47.808;12.482;2023-07-31T15:26:00;33.60;87.80
34646;DHT22;20857;47.808;12.482;2023-07-31T15:28:25;33.60;87.80
34646;DHT22;20857;47.808;12.482;2023-07-31T15:30:51;33.70;89.10
34646;DHT22;20857;47.808;12.482;2023-07-31T15:33:16;34.30;86.70
34646;DHT22;20857;47.808;12.482;2023-07-31T15:35:42;34.40;86.80
34646;DHT22;20857;47.808;12.482;2023-07-31T15:38:08;34.70;86.80
34646;DHT22;20857;47.808;12.482;2023-07-31T15:40:33;35.20;85.70
34646;DHT22;20857;47.808;12.482;2023-07-31T15:42:59;34.80;83.50
34646;DHT22;20857;47.808;12.482;2023-07-31T15:45:27;35.20;84.10
34646;DHT22;20857;47.808;12.482;2023-07-31T15:47:53;35.50;83.00
34646;DHT22;20857;47.808;12.482;2023-07-31T15:50:18;35.30;81.40
34646;DHT22;20857;47.808;12.482;2023-07-31T15:52:44;34.80;81.00
34646;DHT22;20857;47.808;12.482;2023-07-31T15:55:10;33.90;83.10